Time;durP1;ratioP1;P1;durP2;ratioP2;P2;SDS_P1;SDS_P2;PMS_P1;PMS_P2;Temp;Humidity;BMP_temperature;BMP_pressure;BME280_temperature;BME280_humidity;BME280_pressure;Samples;Min_cycle;Max_cycle;Signal;HPM_P1;HPM_P2
2022/01/07 00:01:57;;;;;;;18.77;8.25;;;4.60;99.90;;;;;;5151687;27;20365;-66
2022/01/07 00:04:22;;;;;;;14.20;6.72;;;4.40;99.90;;;;;;5121625;28;20042;-66
2022/01/07 00:06:48;;;;;;;17.60;8.30;;;4.60;99.90;;;;;;5117194;28;20089;-66
2022/01/07 00:09:14;;;;;;;17.60;7.38;;;4.40;99.90;;;;;;5123556;28;20028;-66
2022/01/07 00:11:39;;;;;;;13.95;6.35;;;4.30;99.90;;;;;;5124197;28;20050;-66
2022/01/07 00:14:05;;;;;;;17.05;6.55;;;4.20;99.90;;;;;;5113891;28;20104;-66
2022/01/07 00:16:31;;;;;;;14.88;7.25;;;4.40;99.90;;;;;;5117393;28;20051;-66
2022/01/07 00:18:57;;;;;;;15.50;6.65;;;4.30;99.90;;;;;;5122652;28;20051;-66
2022/01/07 00:21:24;;;;;;;14.65;6.32;;;4.10;99.90;;;;;;5127900;28;20036;-66
2022/01/07 00:23:50;;;;;;;16.27;5.97;;;4.30;99.90;;;;;;5118807;28;20044;-66
2022/01/07 00:26:16;;;;;;;18.13;7.32;;;4.30;99.90;;;;;;5118268;28;20082;-67
2022/01/07 00:28:41;;;;;;;13.70;6.10;;;4.20;99.90;;;;;;5112357;28;20052;-66
2022/01/07 00:31:08;;;;;;;15.48;7.25;;;4.30;99.90;;;;;;5126324;28;20070;-66
2022/01/07 00:33:34;;;;;;;17.98;6.82;;;4.40;99.90;;;;;;5116696;27;20055;-66
2022/01/07 00:36:00;;;;;;;10.95;5.88;;;4.30;99.90;;;;;;5122831;28;20039;-66
2022/01/07 00:38:27;;;;;;;16.38;6.40;;;4.30;99.90;;;;;;5127037;28;20074;-66
2022/01/07 00:40:53;;;;;;;18.90;7.10;;;4.30;99.90;;;;;;5118830;28;20067;-66
2022/01/07 00:43:19;;;;;;;14.95;6.65;;;4.40;99.90;;;;;;5118077;28;20785;-66
2022/01/07 00:45:45;;;;;;;18.20;7.90;;;4.50;99.90;;;;;;5124002;28;20077;-66
2022/01/07 00:48:11;;;;;;;11.65;5.82;;;4.30;99.90;;;;;;5127947;28;20040;-66
2022/01/07 00:50:37;;;;;;;16.42;6.80;;;4.20;99.90;;;;;;5109857;28;20043;-66
2022/01/07 00:53:03;;;;;;;16.13;6.60;;;4.20;99.90;;;;;;5143234;27;20049;-66
2022/01/07 00:55:28;;;;;;;16.33;5.85;;;4.30;99.90;;;;;;5114380;28;20458;-66
2022/01/07 00:57:55;;;;;;;12.07;6.32;;;4.30;99.90;;;;;;5117594;28;20044;-66
2022/01/07 01:00:23;;;;;;;15.32;6.32;;;4.30;99.90;;;;;;5114136;28;20036;-66
2022/01/07 01:02:49;;;;;;;15.18;6.43;;;4.00;99.90;;;;;;5122594;28;20507;-66
2022/01/07 01:05:15;;;;;;;14.50;5.70;;;4.10;99.90;;;;;;5106737;28;20066;-66
2022/01/07 01:07:42;;;;;;;19.45;6.70;;;3.90;99.90;;;;;;5114888;28;20044;-66
2022/01/07 01:10:09;;;;;;;11.43;5.82;;;3.90;99.90;;;;;;5120216;28;20039;-66
2022/01/07 01:12:36;;;;;;;14.27;6.15;;;3.80;99.90;;;;;;5109302;28;20043;-66
2022/01/07 01:15:06;;;;;;;17.63;6.20;;;3.90;99.90;;;;;;5114494;28;20044;-66
2022/01/07 01:17:32;;;;;;;12.90;6.10;;;3.80;99.90;;;;;;5127395;28;20044;-66
2022/01/07 01:19:58;;;;;;;11.43;6.40;;;3.60;99.90;;;;;;5128383;28;20114;-66
2022/01/07 01:22:24;;;;;;;12.75;6.38;;;3.70;99.90;;;;;;5109384;28;20047;-66
2022/01/07 01:24:50;;;;;;;13.30;6.47;;;3.60;99.90;;;;;;5121147;28;20043;-66
2022/01/07 01:27:16;;;;;;;14.13;6.05;;;3.80;99.90;;;;;;5102862;28;20055;-67
2022/01/07 01:29:42;;;;;;;19.13;6.80;;;3.70;99.90;;;;;;5126070;28;20470;-66
2022/01/07 01:32:08;;;;;;;15.10;6.63;;;3.60;99.90;;;;;;5120062;28;20036;-66
2022/01/07 01:34:33;;;;;;;11.60;5.82;;;3.50;99.90;;;;;;5121095;28;20040;-66
2022/01/07 01:36:59;;;;;;;18.13;7.50;;;3.50;99.90;;;;;;5124663;28;20047;-66
2022/01/07 01:39:25;;;;;;;15.30;6.45;;;3.40;99.90;;;;;;5108827;28;20040;-67
2022/01/07 01:41:51;;;;;;;16.42;7.30;;;3.50;99.90;;;;;;5108733;28;20046;-66
2022/01/07 01:44:17;;;;;;;15.07;7.07;;;3.50;99.90;;;;;;5105600;28;20048;-66
2022/01/07 01:46:42;;;;;;;14.05;6.28;;;3.50;99.90;;;;;;5108433;28;20035;-66
2022/01/07 01:49:09;;;;;;;16.00;7.10;;;3.60;99.90;;;;;;5115647;28;20108;-66
2022/01/07 01:51:35;;;;;;;18.73;6.30;;;3.60;99.90;;;;;;5109443;28;20396;-67
2022/01/07 01:54:02;;;;;;;15.38;7.55;;;3.60;99.90;;;;;;5112009;28;20100;-66
2022/01/07 01:56:28;;;;;;;18.30;6.55;;;3.60;99.90;;;;;;5108871;28;20044;-66
2022/01/07 01:58:54;;;;;;;10.90;6.93;;;3.80;99.90;;;;;;5117469;28;20086;-66
2022/01/07 02:01:20;;;;;;;15.63;7.70;;;3.70;99.90;;;;;;5107359;28;20047;-66
2022/01/07 02:03:47;;;;;;;19.48;7.80;;;3.80;99.90;;;;;;5118055;28;20048;-66
2022/01/07 02:06:15;;;;;;;16.60;8.00;;;3.70;99.90;;;;;;5106100;28;20046;-66
2022/01/07 02:08:41;;;;;;;14.55;6.65;;;3.50;99.90;;;;;;5122791;28;20091;-66
2022/01/07 02:11:07;;;;;;;19.23;8.23;;;3.50;99.90;;;;;;5119075;28;20035;-66
2022/01/07 02:13:33;;;;;;;16.23;7.93;;;3.50;99.90;;;;;;5104982;28;20054;-66
2022/01/07 02:15:59;;;;;;;14.32;8.05;;;3.60;99.90;;;;;;5115761;28;20038;-66
2022/01/07 02:18:24;;;;;;;13.55;6.75;;;3.40;99.90;;;;;;5108601;28;20086;-66
2022/01/07 02:20:50;;;;;;;15.80;8.63;;;3.40;99.90;;;;;;5119247;28;20518;-66
2022/01/07 02:23:18;;;;;;;17.45;8.25;;;3.50;99.90;;;;;;5111567;28;20044;-66
2022/01/07 02:25:45;;;;;;;14.70;8.23;;;3.80;99.90;;;;;;5107001;28;20048;-67
2022/01/07 02:28:12;;;;;;;15.52;8.43;;;3.40;99.90;;;;;;5126460;28;20116;-66
2022/01/07 02:30:38;;;;;;;20.42;9.32;;;3.40;99.90;;;;;;5131220;27;20042;-66
2022/01/07 02:33:04;;;;;;;15.43;8.00;;;3.40;99.90;;;;;;5126045;28;20043;-64
2022/01/07 02:35:32;;;;;;;15.93;9.43;;;3.20;99.90;;;;;;5107501;28;20089;-66
2022/01/07 02:37:58;;;;;;;12.00;4.82;;;3.30;99.90;;;;;;5126130;28;20111;-66
2022/01/07 02:40:24;;;;;;;15.35;8.57;;;3.40;99.90;;;;;;5125733;28;20043;-66
2022/01/07 02:42:49;;;;;;;17.88;10.13;;;3.40;99.90;;;;;;5107714;28;20065;-67
2022/01/07 02:45:16;;;;;;;14.63;8.00;;;3.40;99.90;;;;;;5125131;28;20111;-66
2022/01/07 02:47:54;;;;;;;18.35;9.38;;;3.50;99.90;;;;;;5108252;28;20126;-66
2022/01/07 02:50:26;;;;;;;17.30;9.23;;;3.30;99.90;;;;;;5104871;28;20039;-66
2022/01/07 02:52:53;;;;;;;20.08;9.05;;;3.30;99.90;;;;;;5107663;28;20043;-66
2022/01/07 02:55:20;;;;;;;18.73;9.82;;;3.40;99.90;;;;;;5129217;27;20051;-66
2022/01/07 02:57:46;;;;;;;15.95;9.15;;;3.20;99.90;;;;;;5106113;28;20039;-66
2022/01/07 03:00:13;;;;;;;15.13;9.27;;;3.20;99.90;;;;;;5125452;28;20175;-66
2022/01/07 03:02:38;;;;;;;17.77;9.32;;;3.30;99.90;;;;;;5124529;28;20049;-66
2022/01/07 03:05:05;;;;;;;14.85;9.13;;;3.40;99.90;;;;;;5125497;28;20035;-66
2022/01/07 03:07:33;;;;;;;20.27;10.65;;;3.40;99.90;;;;;;5106680;28;20424;-66
2022/01/07 03:09:58;;;;;;;19.05;10.68;;;3.50;99.90;;;;;;5125202;28;20051;-66
2022/01/07 03:12:24;;;;;;;20.90;10.98;;;3.20;99.90;;;;;;5142126;27;20036;-66
2022/01/07 03:14:50;;;;;;;19.73;10.57;;;3.40;99.90;;;;;;5126110;28;20055;-66
2022/01/07 03:17:16;;;;;;;14.68;10.52;;;3.10;99.90;;;;;;5125706;28;20050;-67
2022/01/07 03:19:43;;;;;;;15.65;10.00;;;3.10;99.90;;;;;;5134115;27;20071;-66
2022/01/07 03:22:09;;;;;;;15.15;9.23;;;3.20;99.90;;;;;;5125428;28;20047;-66
2022/01/07 03:24:34;;;;;;;17.25;11.45;;;3.20;99.90;;;;;;5125031;28;20516;-66
2022/01/07 03:27:00;;;;;;;16.10;11.05;;;3.10;99.90;;;;;;5106780;28;20039;-66
2022/01/07 03:29:26;;;;;;;18.25;11.77;;;3.20;99.90;;;;;;5125330;28;20070;-66
2022/01/07 03:31:52;;;;;;;15.52;10.27;;;3.00;99.90;;;;;;5141722;27;20071;-66
2022/01/07 03:34:17;;;;;;;19.58;13.13;;;3.10;99.90;;;;;;5107452;28;20484;-66
2022/01/07 03:36:43;;;;;;;17.52;11.25;;;3.00;99.90;;;;;;5101198;28;20051;-66
2022/01/07 03:39:09;;;;;;;17.00;10.98;;;3.20;99.90;;;;;;5125059;28;20492;-66
2022/01/07 03:41:35;;;;;;;11.35;8.25;;;3.10;99.90;;;;;;5125391;28;20051;-66
2022/01/07 03:44:00;;;;;;;14.75;8.52;;;3.10;99.90;;;;;;5125081;28;20043;-66
2022/01/07 03:46:26;;;;;;;16.63;11.65;;;3.10;99.90;;;;;;5124782;28;20032;-66
2022/01/07 03:48:52;;;;;;;18.13;11.25;;;3.10;99.90;;;;;;5106900;28;20035;-66
2022/01/07 03:51:17;;;;;;;15.25;10.55;;;3.00;99.90;;;;;;5125251;28;20032;-66
2022/01/07 03:53:43;;;;;;;19.10;11.70;;;3.20;99.90;;;;;;5104842;28;20047;-66
2022/01/07 03:56:11;;;;;;;14.70;10.13;;;3.20;99.90;;;;;;5125189;28;20039;-66
2022/01/07 03:58:37;;;;;;;14.90;10.27;;;3.20;99.90;;;;;;5106825;28;20395;-66
2022/01/07 04:01:03;;;;;;;15.85;11.85;;;3.30;99.90;;;;;;5101499;28;20043;-66
2022/01/07 04:03:29;;;;;;;17.75;11.63;;;3.10;99.90;;;;;;5106136;28;20123;-66
2022/01/07 04:05:55;;;;;;;20.33;11.68;;;3.20;99.90;;;;;;5125046;28;20476;-66
2022/01/07 04:08:21;;;;;;;19.60;11.98;;;3.20;99.90;;;;;;5123462;28;20092;-66
2022/01/07 04:10:46;;;;;;;16.27;11.10;;;3.20;99.90;;;;;;5104628;28;20036;-66
2022/01/07 04:13:12;;;;;;;16.38;10.85;;;3.20;99.90;;;;;;5106620;28;20040;-66
2022/01/07 04:15:38;;;;;;;12.02;8.15;;;3.40;99.90;;;;;;5102874;28;20044;-66
2022/01/07 04:18:04;;;;;;;22.45;12.35;;;3.40;99.90;;;;;;5124610;28;20048;-66
2022/01/07 04:20:33;;;;;;;13.50;9.95;;;3.20;99.90;;;;;;5125591;28;20040;-66
2022/01/07 04:22:59;;;;;;;16.38;10.80;;;3.30;99.90;;;;;;5107032;28;20043;-66
2022/01/07 04:25:25;;;;;;;19.13;11.20;;;3.30;99.90;;;;;;5124781;28;20039;-67
2022/01/07 04:27:58;;;;;;;17.20;11.18;;;3.20;99.90;;;;;;5118405;28;20055;-66
2022/01/07 04:30:25;;;;;;;15.90;9.00;;;3.30;99.90;;;;;;5123425;28;20050;-66
2022/01/07 04:32:53;;;;;;;19.65;11.40;;;3.30;99.90;;;;;;5107085;28;20069;-66
2022/01/07 04:35:19;;;;;;;17.92;10.93;;;3.20;99.90;;;;;;5118486;28;20044;-66
2022/01/07 04:37:45;;;;;;;19.85;12.02;;;3.10;99.90;;;;;;5113544;28;20071;-66
2022/01/07 04:40:13;;;;;;;20.50;11.68;;;3.20;99.90;;;;;;5124228;28;20077;-66
2022/01/07 04:42:38;;;;;;;18.90;12.30;;;3.20;99.90;;;;;;5106356;28;20052;-66
2022/01/07 04:45:06;;;;;;;17.50;10.15;;;3.10;99.90;;;;;;5120473;28;20039;-66
2022/01/07 04:47:32;;;;;;;15.68;10.35;;;3.20;99.90;;;;;;5106781;28;20059;-66
2022/01/07 04:49:58;;;;;;;15.57;9.75;;;3.20;99.90;;;;;;5106143;28;20043;-66
2022/01/07 04:52:24;;;;;;;19.02;10.77;;;3.30;99.90;;;;;;5140415;28;20040;-66
2022/01/07 04:54:50;;;;;;;19.83;11.68;;;3.30;99.90;;;;;;5124209;28;20503;-66
2022/01/07 04:57:15;;;;;;;14.48;10.27;;;3.30;99.90;;;;;;5118402;28;20111;-66
2022/01/07 04:59:41;;;;;;;15.02;10.43;;;3.20;99.90;;;;;;5140084;27;20151;-66
2022/01/07 05:02:07;;;;;;;15.02;9.63;;;3.30;99.90;;;;;;5143654;27;20051;-66
2022/01/07 05:04:32;;;;;;;18.90;11.07;;;3.30;99.90;;;;;;5121798;28;20096;-66
2022/01/07 05:06:59;;;;;;;18.75;11.68;;;3.20;99.90;;;;;;5115668;28;20039;-66
2022/01/07 05:09:24;;;;;;;18.30;10.15;;;3.20;99.90;;;;;;5106915;28;20105;-66
2022/01/07 05:11:52;;;;;;;17.88;9.93;;;3.20;99.90;;;;;;5123732;28;20036;-66
2022/01/07 05:14:18;;;;;;;17.80;10.52;;;3.30;99.90;;;;;;5128063;28;20044;-66
2022/01/07 05:16:45;;;;;;;14.75;11.23;;;3.30;99.90;;;;;;5144270;27;20054;-66
2022/01/07 05:19:11;;;;;;;12.85;8.50;;;3.20;99.90;;;;;;5108660;28;20058;-66
2022/01/07 05:21:38;;;;;;;14.45;10.45;;;3.30;99.90;;;;;;5118164;28;20139;-66
2022/01/07 05:24:05;;;;;;;16.05;10.73;;;3.40;99.90;;;;;;5123507;28;20040;-66
2022/01/07 05:26:31;;;;;;;14.80;9.38;;;3.30;99.90;;;;;;5109722;28;20047;-66
2022/01/07 05:28:57;;;;;;;17.00;10.55;;;3.30;99.90;;;;;;5120366;28;20047;-66
2022/01/07 05:31:23;;;;;;;17.85;10.60;;;3.30;99.90;;;;;;5120318;28;20058;-66
2022/01/07 05:33:54;;;;;;;12.40;10.35;;;3.30;99.90;;;;;;5108190;28;20039;-66
2022/01/07 05:36:20;;;;;;;12.35;9.18;;;3.30;99.90;;;;;;5118699;28;20137;-66
2022/01/07 05:38:47;;;;;;;14.50;9.30;;;3.30;99.90;;;;;;5143737;27;20066;-66
2022/01/07 05:41:13;;;;;;;16.20;9.00;;;3.30;99.90;;;;;;5117901;27;20048;-66
2022/01/07 05:43:39;;;;;;;14.43;9.50;;;3.40;99.90;;;;;;5107688;28;20051;-66
2022/01/07 05:46:05;;;;;;;15.27;9.82;;;3.30;99.90;;;;;;5105732;28;20043;-66
2022/01/07 05:48:32;;;;;;;11.65;6.63;;;3.40;99.90;;;;;;5125715;28;20043;-66
2022/01/07 05:50:58;;;;;;;12.40;7.78;;;3.30;99.90;;;;;;5101016;28;20123;-66
2022/01/07 05:53:24;;;;;;;10.93;8.27;;;3.40;99.90;;;;;;5113601;28;20069;-66
2022/01/07 05:55:49;;;;;;;12.07;8.50;;;3.50;99.90;;;;;;5108824;28;20047;-66
2022/01/07 05:58:15;;;;;;;17.15;9.57;;;3.60;99.90;;;;;;5105460;28;20052;-66
2022/01/07 06:00:41;;;;;;;14.35;10.50;;;3.50;99.90;;;;;;5126845;28;20046;-66
2022/01/07 06:03:06;;;;;;;11.07;8.90;;;3.40;99.90;;;;;;5104809;28;20044;-66
2022/01/07 06:05:32;;;;;;;11.95;9.02;;;3.50;99.90;;;;;;5119804;28;20035;-66
2022/01/07 06:07:58;;;;;;;11.93;7.80;;;3.40;99.90;;;;;;5106065;28;20515;-66
2022/01/07 06:10:24;;;;;;;13.13;8.68;;;3.40;99.90;;;;;;5126241;28;20050;-66
2022/01/07 06:12:50;;;;;;;14.73;8.52;;;3.50;99.90;;;;;;5111446;28;20055;-66
2022/01/07 06:15:15;;;;;;;10.82;8.32;;;3.50;99.90;;;;;;5117748;28;20047;-66
2022/01/07 06:17:41;;;;;;;9.65;7.03;;;3.50;99.90;;;;;;5123522;28;20056;-66
2022/01/07 06:20:08;;;;;;;12.73;8.15;;;3.60;99.90;;;;;;5108600;28;20031;-66
2022/01/07 06:22:36;;;;;;;12.25;8.30;;;3.50;99.90;;;;;;5105543;28;20082;-66
2022/01/07 06:25:04;;;;;;;14.32;8.43;;;3.50;99.90;;;;;;5103209;28;20048;-66
2022/01/07 06:27:31;;;;;;;13.23;9.23;;;3.40;99.90;;;;;;5123707;28;20047;-66
2022/01/07 06:29:57;;;;;;;10.77;7.90;;;3.30;99.90;;;;;;5142170;27;20169;-66
2022/01/07 06:32:26;;;;;;;10.93;9.18;;;3.50;99.90;;;;;;5108132;28;20544;-66
2022/01/07 06:34:52;;;;;;;12.13;8.93;;;3.40;99.90;;;;;;5126199;28;20092;-66
2022/01/07 06:37:18;;;;;;;10.00;7.47;;;3.50;99.90;;;;;;5108246;28;20126;-66
2022/01/07 06:39:44;;;;;;;14.18;8.73;;;3.60;99.90;;;;;;5113910;28;20043;-66
2022/01/07 06:42:10;;;;;;;13.20;7.88;;;3.50;99.90;;;;;;5127125;28;20047;-66
2022/01/07 06:44:36;;;;;;;12.68;8.82;;;3.60;99.90;;;;;;5126866;28;20103;-66
2022/01/07 06:47:03;;;;;;;10.32;8.13;;;3.60;99.90;;;;;;5108091;28;20108;-66
2022/01/07 06:49:29;;;;;;;13.38;9.02;;;3.50;99.90;;;;;;5126650;28;20058;-66
2022/01/07 06:51:55;;;;;;;16.77;9.13;;;3.70;99.90;;;;;;5142364;27;20142;-66
2022/01/07 06:54:21;;;;;;;12.48;8.57;;;3.60;99.90;;;;;;5125555;28;20048;-66
2022/01/07 06:56:46;;;;;;;11.45;8.85;;;3.50;99.90;;;;;;5133671;27;20039;-66
2022/01/07 06:59:13;;;;;;;13.25;9.57;;;3.50;99.90;;;;;;5125628;28;20062;-66
2022/01/07 07:01:43;;;;;;;13.23;10.13;;;3.50;99.90;;;;;;5125950;28;20043;-66
2022/01/07 07:04:09;;;;;;;12.90;9.82;;;3.50;99.90;;;;;;5106968;28;20061;-66
2022/01/07 07:06:34;;;;;;;13.18;9.65;;;3.60;99.90;;;;;;5125852;28;20067;-66
2022/01/07 07:09:02;;;;;;;14.05;10.63;;;3.50;99.90;;;;;;5122845;28;20051;-66
2022/01/07 07:11:28;;;;;;;15.43;9.15;;;3.60;99.90;;;;;;5107512;28;20051;-66
2022/01/07 07:13:53;;;;;;;12.15;9.75;;;3.50;99.90;;;;;;5107206;28;20125;-66
2022/01/07 07:16:20;;;;;;;11.68;10.18;;;3.50;99.90;;;;;;5125760;28;20453;-66
2022/01/07 07:18:46;;;;;;;11.95;9.73;;;3.40;99.90;;;;;;5107901;28;20066;-66
2022/01/07 07:21:12;;;;;;;14.55;9.65;;;3.60;99.90;;;;;;5124823;28;20043;-66
2022/01/07 07:23:37;;;;;;;14.35;11.40;;;3.60;99.90;;;;;;5125276;28;20067;-66
2022/01/07 07:26:03;;;;;;;14.13;10.25;;;3.60;99.90;;;;;;5121334;28;20056;-66
2022/01/07 07:28:29;;;;;;;15.27;9.15;;;3.70;99.90;;;;;;5103934;28;20048;-66
2022/01/07 07:30:59;;;;;;;12.25;10.52;;;3.60;99.90;;;;;;5104344;28;20052;-66
2022/01/07 07:38:38;;;;;;;13.13;10.48;;;3.60;99.90;;;;;;5124031;28;20058;-66
2022/01/07 07:41:06;;;;;;;13.45;11.07;;;3.70;99.90;;;;;;5122031;28;20058;-66
2022/01/07 07:43:32;;;;;;;16.02;10.30;;;3.60;99.90;;;;;;5103388;28;20405;-66
2022/01/07 07:45:59;;;;;;;14.18;10.55;;;3.80;99.90;;;;;;5125476;28;20400;-66
2022/01/07 07:48:25;;;;;;;16.20;11.27;;;3.70;99.90;;;;;;5120958;28;20088;-66
2022/01/07 07:50:51;;;;;;;15.50;12.48;;;3.70;99.90;;;;;;5121946;28;20028;-66
2022/01/07 07:53:16;;;;;;;14.55;11.55;;;3.80;99.90;;;;;;5105710;28;20384;-66
2022/01/07 07:55:44;;;;;;;16.20;10.70;;;3.90;99.90;;;;;;5123918;28;20040;-66
2022/01/07 07:58:09;;;;;;;19.52;13.20;;;3.90;99.90;;;;;;5105628;28;20093;-66
2022/01/07 08:00:35;;;;;;;16.20;10.75;;;3.80;99.90;;;;;;5106382;28;20051;-66
2022/01/07 08:03:01;;;;;;;17.85;13.23;;;3.70;99.90;;;;;;5117672;28;20079;-66
2022/01/07 08:05:27;;;;;;;18.83;11.80;;;3.70;99.90;;;;;;5123061;28;20035;-66
2022/01/07 08:07:52;;;;;;;15.75;13.60;;;3.90;99.90;;;;;;5105738;28;20044;-66
2022/01/07 08:10:23;;;;;;;22.45;14.23;;;3.90;99.90;;;;;;5118552;28;20495;-66
2022/01/07 08:13:03;;;;;;;20.98;14.05;;;3.80;99.90;;;;;;5121276;28;20032;-66
2022/01/07 08:18:13;;;;;;;21.20;14.30;;;3.90;99.90;;;;;;5139231;28;20451;-67
2022/01/07 08:20:39;;;;;;;19.05;13.27;;;3.90;99.90;;;;;;5139253;28;20071;-66
2022/01/07 08:23:05;;;;;;;24.45;15.10;;;4.00;99.90;;;;;;5105788;28;20075;-66
2022/01/07 08:25:32;;;;;;;21.08;13.80;;;4.00;99.90;;;;;;5122793;28;20396;-67
2022/01/07 08:28:02;;;;;;;23.00;12.93;;;4.00;99.90;;;;;;5123579;28;20095;-66
2022/01/07 08:30:35;;;;;;;;;;;4.10;99.90;;;;;;5106393;28;20043;-66
2022/01/07 08:35:45;;;;;;;24.85;16.40;;;4.20;99.90;;;;;;5126598;28;20057;-66
2022/01/07 08:38:12;;;;;;;25.95;15.50;;;4.00;99.90;;;;;;5124388;28;20059;-66
2022/01/07 08:40:38;;;;;;;25.23;17.35;;;4.10;99.90;;;;;;5127395;28;20113;-66
2022/01/07 08:43:04;;;;;;;20.17;17.15;;;3.90;99.90;;;;;;5126941;28;20102;-66
2022/01/07 08:45:29;;;;;;;20.83;15.48;;;4.00;99.90;;;;;;5126595;28;20038;-66
2022/01/07 08:47:56;;;;;;;25.05;17.30;;;4.20;99.90;;;;;;5141334;27;20403;-66
2022/01/07 08:50:22;;;;;;;20.15;14.90;;;4.20;99.90;;;;;;5127588;28;20123;-66
2022/01/07 08:52:50;;;;;;;26.23;16.27;;;4.30;99.90;;;;;;5109011;28;20035;-66
2022/01/07 08:55:15;;;;;;;22.88;17.13;;;4.30;99.90;;;;;;5126214;28;20116;-64
2022/01/07 08:57:41;;;;;;;22.05;16.55;;;4.10;99.90;;;;;;5127769;28;20031;-67
2022/01/07 09:00:07;;;;;;;23.65;17.85;;;4.20;99.90;;;;;;5128184;27;20047;-66
2022/01/07 09:02:33;;;;;;;28.08;18.63;;;4.20;99.90;;;;;;5124317;28;20040;-67
2022/01/07 09:04:59;;;;;;;27.88;17.33;;;4.20;99.90;;;;;;5069989;28;20050;-67
2022/01/07 09:07:24;;;;;;;30.67;20.20;;;4.30;99.90;;;;;;5095827;28;20051;-67
2022/01/07 09:09:50;;;;;;;29.45;19.65;;;4.30;99.90;;;;;;5109215;28;20066;-67
2022/01/07 09:12:16;;;;;;;29.35;18.38;;;4.30;99.90;;;;;;5139314;27;20111;-67
2022/01/07 09:14:41;;;;;;;29.20;20.55;;;4.40;99.90;;;;;;5109371;28;20109;-67
2022/01/07 09:17:07;;;;;;;35.67;20.33;;;4.30;99.90;;;;;;5121110;28;20036;-67
2022/01/07 09:19:33;;;;;;;30.80;19.48;;;4.30;99.90;;;;;;5136070;27;20492;-67
2022/01/07 09:21:59;;;;;;;32.45;20.08;;;4.60;99.90;;;;;;5104283;28;20399;-67
2022/01/07 09:24:29;;;;;;;30.42;20.45;;;4.60;99.90;;;;;;5122095;28;20051;-67
2022/01/07 09:26:56;;;;;;;31.60;18.42;;;4.50;99.90;;;;;;5100921;28;20112;-69
2022/01/07 09:29:23;;;;;;;27.95;18.80;;;4.60;99.90;;;;;;5119507;28;20488;-67
2022/01/07 09:31:50;;;;;;;33.08;19.10;;;4.70;99.90;;;;;;5106388;28;20158;-66
2022/01/07 09:34:16;;;;;;;32.13;20.58;;;4.70;99.90;;;;;;5108622;28;20055;-66
2022/01/07 09:36:42;;;;;;;28.30;17.65;;;4.80;99.90;;;;;;5123833;28;20046;-66
2022/01/07 09:39:08;;;;;;;32.30;20.75;;;5.00;99.90;;;;;;5133112;27;20039;-66
2022/01/07 09:41:33;;;;;;;32.17;20.58;;;4.90;99.90;;;;;;5107997;28;20089;-66
2022/01/07 09:44:01;;;;;;;29.52;19.33;;;4.90;99.90;;;;;;5104855;28;20069;-66
2022/01/07 09:46:27;;;;;;;34.92;22.70;;;5.00;99.90;;;;;;5125509;28;20114;-67
2022/01/07 09:48:54;;;;;;;31.00;20.65;;;5.00;99.90;;;;;;5133346;27;20048;-66
2022/01/07 09:51:19;;;;;;;33.63;20.13;;;5.00;99.90;;;;;;5126939;28;20067;-67
2022/01/07 09:53:45;;;;;;;34.22;20.60;;;5.00;99.90;;;;;;5086518;27;20092;-68
2022/01/07 09:56:12;;;;;;;29.85;21.20;;;5.00;99.90;;;;;;5113049;28;20380;-67
2022/01/07 09:58:37;;;;;;;28.58;17.95;;;5.00;99.90;;;;;;5132181;27;20058;-67
2022/01/07 10:01:16;;;;;;;30.20;19.60;;;5.00;99.90;;;;;;5145095;27;20043;-67
2022/01/07 10:03:43;;;;;;;30.50;20.05;;;5.20;99.90;;;;;;5115375;28;20043;-65
2022/01/07 10:06:17;;;;;;;31.98;17.85;;;5.10;99.90;;;;;;5112371;27;20062;-66
2022/01/07 10:08:43;;;;;;;31.30;18.63;;;5.20;99.90;;;;;;5115270;28;20065;-67
2022/01/07 10:11:19;;;;;;;29.90;19.67;;;5.30;99.90;;;;;;5139848;27;20081;-67
2022/01/07 10:13:50;;;;;;;26.35;17.25;;;5.30;99.90;;;;;;5154252;27;20435;-67
2022/01/07 10:16:18;;;;;;;28.60;18.42;;;5.40;99.90;;;;;;5140442;27;20061;-67
2022/01/07 10:18:45;;;;;;;29.50;17.77;;;5.30;99.90;;;;;;5118136;28;20085;-67
2022/01/07 10:21:11;;;;;;;30.40;20.35;;;5.50;99.90;;;;;;5125040;27;20066;-67
2022/01/07 10:23:37;;;;;;;28.13;19.35;;;5.20;99.90;;;;;;5117695;28;20047;-67
2022/01/07 10:26:03;;;;;;;27.23;18.30;;;5.10;99.90;;;;;;5125660;27;20054;-67
2022/01/07 10:28:33;;;;;;;23.58;18.52;;;5.30;99.90;;;;;;5118174;28;20100;-67
2022/01/07 10:31:02;;;;;;;;;;;5.20;99.90;;;;;;5129430;27;20460;-67
2022/01/07 10:33:29;;;;;;;31.45;19.63;;;5.40;99.90;;;;;;5118479;28;19921;-67
2022/01/07 10:36:05;;;;;;;31.50;18.85;;;5.20;99.90;;;;;;5137507;27;20376;-67
2022/01/07 10:38:31;;;;;;;23.92;15.93;;;5.10;99.90;;;;;;5101742;28;20043;-66
2022/01/07 10:40:59;;;;;;;20.75;13.68;;;5.10;99.90;;;;;;5133111;27;20145;-67
2022/01/07 10:43:29;;;;;;;19.05;13.20;;;5.00;99.90;;;;;;5119872;27;20071;-67
2022/01/07 10:45:58;;;;;;;20.00;13.25;;;5.00;99.90;;;;;;5140915;27;20141;-66
2022/01/07 10:48:39;;;;;;;21.48;14.25;;;4.90;99.90;;;;;;5115377;27;20074;-66
2022/01/07 10:51:10;;;;;;;20.92;13.30;;;4.90;99.90;;;;;;5140560;27;20106;-66
2022/01/07 10:53:37;;;;;;;25.13;18.00;;;5.00;99.90;;;;;;5119810;28;20050;-67
2022/01/07 10:56:03;;;;;;;25.30;17.52;;;4.90;99.90;;;;;;5145517;27;20047;-67
2022/01/07 10:58:39;;;;;;;23.52;16.60;;;5.00;99.90;;;;;;5114470;28;20060;-66
2022/01/07 11:01:05;;;;;;;27.92;18.10;;;5.00;99.90;;;;;;5135961;27;20046;-66
2022/01/07 11:03:33;;;;;;;26.55;15.60;;;5.20;99.90;;;;;;5115334;27;20040;-65
2022/01/07 11:06:01;;;;;;;23.80;15.02;;;5.20;99.90;;;;;;5123300;27;20050;-65
2022/01/07 11:08:27;;;;;;;25.80;15.38;;;5.20;99.90;;;;;;5113803;27;20088;-65
2022/01/07 11:10:53;;;;;;;16.88;10.00;;;5.20;99.90;;;;;;5124246;27;20039;-65
2022/01/07 11:13:19;;;;;;;16.20;6.85;;;5.00;99.90;;;;;;5117565;27;20225;-66
2022/01/07 11:15:44;;;;;;;13.73;5.90;;;5.10;99.90;;;;;;5124491;27;20058;-66
2022/01/07 11:18:10;;;;;;;11.68;4.88;;;5.10;99.90;;;;;;5118822;27;20054;-66
2022/01/07 11:20:37;;;;;;;10.25;4.82;;;5.00;99.90;;;;;;5120815;27;20172;-66
2022/01/07 11:23:03;;;;;;;12.27;5.45;;;5.00;99.90;;;;;;5120498;27;20096;-66
2022/01/07 11:25:33;;;;;;;13.20;5.30;;;5.00;99.90;;;;;;5117662;27;20382;-66
2022/01/07 11:28:00;;;;;;;11.23;5.43;;;5.00;99.90;;;;;;5124150;27;20043;-65
2022/01/07 11:30:32;;;;;;;13.02;7.05;;;5.10;99.90;;;;;;5129359;27;20050;-65
2022/01/07 11:32:59;;;;;;;11.10;6.38;;;5.10;99.90;;;;;;5121777;27;20071;-68
2022/01/07 11:35:26;;;;;;;13.00;7.88;;;5.30;99.90;;;;;;5128794;27;20149;-66
2022/01/07 11:37:53;;;;;;;15.77;10.43;;;5.30;99.90;;;;;;5129625;27;20070;-66
2022/01/07 11:40:33;;;;;;;16.30;11.05;;;5.50;99.90;;;;;;5116244;27;20093;-66
2022/01/07 11:43:00;;;;;;;;;;;5.40;99.90;;;;;;5123848;27;20139;-67
2022/01/07 11:45:34;;;;;;;19.45;12.30;;;5.60;99.90;;;;;;5117495;27;19980;-66
2022/01/07 11:48:10;;;;;;;19.80;12.82;;;5.50;99.90;;;;;;5119125;27;20043;-66
2022/01/07 11:50:54;;;;;;;22.33;13.57;;;5.60;99.90;;;;;;5118932;27;20046;-66
2022/01/07 11:53:21;;;;;;;22.00;14.35;;;5.50;99.90;;;;;;5120082;28;20048;-66
2022/01/07 11:55:46;;;;;;;23.13;15.50;;;5.30;99.90;;;;;;5122968;27;20302;-66
2022/01/07 11:58:13;;;;;;;26.20;15.75;;;5.40;99.90;;;;;;5118556;28;20039;-67
2022/01/07 12:00:58;;;;;;;26.88;17.15;;;5.50;99.90;;;;;;5127447;27;20085;-66
2022/01/07 12:03:36;;;;;;;24.35;16.70;;;5.30;99.90;;;;;;5113418;28;20044;-66
2022/01/07 12:06:24;;;;;;;22.35;15.95;;;5.20;99.90;;;;;;5106861;27;20046;-66
2022/01/07 12:09:06;;;;;;;27.88;17.88;;;5.10;99.90;;;;;;5118419;28;20575;-66
2022/01/07 12:11:45;;;;;;;18.52;13.07;;;5.30;99.90;;;;;;5120411;27;20051;-66
2022/01/07 12:14:15;;;;;;;24.67;14.73;;;5.50;99.90;;;;;;5120375;27;20039;-66
2022/01/07 12:16:43;;;;;;;23.80;15.30;;;5.50;99.90;;;;;;5120650;27;20103;-66
2022/01/07 12:19:15;;;;;;;25.17;15.27;;;5.50;99.90;;;;;;5110684;28;20039;-66
2022/01/07 12:21:41;;;;;;;24.15;14.88;;;5.40;99.90;;;;;;5143888;27;20066;-66
2022/01/07 12:24:14;;;;;;;18.33;13.18;;;5.50;99.90;;;;;;5154929;27;20819;-66
2022/01/07 12:26:40;;;;;;;18.08;12.13;;;5.50;99.90;;;;;;5137274;27;20042;-66
2022/01/07 12:29:14;;;;;;;18.90;11.07;;;5.60;99.90;;;;;;5119737;28;20069;-66
2022/01/07 12:31:53;;;;;;;13.68;10.05;;;5.60;99.90;;;;;;5136506;27;20358;-66
2022/01/07 12:34:26;;;;;;;9.63;6.47;;;5.70;99.90;;;;;;5154127;27;20043;-65
2022/01/07 12:37:00;;;;;;;5.50;3.33;;;5.60;99.90;;;;;;5127546;27;20063;-65
2022/01/07 12:39:28;;;;;;;6.57;2.90;;;5.60;99.90;;;;;;5118130;28;20077;-64
2022/01/07 12:41:55;;;;;;;6.88;2.83;;;5.30;99.90;;;;;;5128151;27;20047;-65
2022/01/07 12:44:23;;;;;;;6.22;2.67;;;5.40;99.90;;;;;;5113736;28;20397;-64
2022/01/07 12:46:54;;;;;;;5.10;2.15;;;5.20;99.90;;;;;;5125909;27;20137;-70
2022/01/07 12:49:32;;;;;;;4.60;2.05;;;5.10;99.90;;;;;;5152036;27;20054;-69
2022/01/07 12:52:00;;;;;;;8.52;2.35;;;5.10;99.90;;;;;;5117832;27;20071;-69
2022/01/07 12:54:26;;;;;;;9.05;1.92;;;5.10;99.90;;;;;;5116488;28;20068;-68